sensor_id;sensor_type;location;lat;lon;timestamp;temperature;humidity
22185;DHT22;11258;52.516;13.318;2023-11-19T00:00:21;4.90;99.90
22185;DHT22;11258;52.516;13.318;2023-11-19T00:02:49;4.90;99.90
22185;DHT22;11258;52.516;13.318;2023-11-19T00:05:15;5.00;99.90
22185;DHT22;11258;52.516;13.318;2023-11-19T00:07:40;5.00;99.90
22185;DHT22;11258;52.516;13.318;2023-11-19T00:10:10;4.90;99.90
22185;DHT22;11258;52.516;13.318;2023-11-19T00:12:38;5.00;99.90
22185;DHT22;11258;52.516;13.318;2023-11-19T00:15:04;5.00;99.90
22185;DHT22;11258;52.516;13.318;2023-11-19T00:17:30;4.90;99.90
22185;DHT22;11258;52.516;13.318;2023-11-19T00:19:57;4.90;99.90
22185;DHT22;11258;52.516;13.318;2023-11-19T00:22:22;4.90;99.90
22185;DHT22;11258;52.516;13.318;2023-11-19T00:24:48;4.90;99.90
22185;DHT22;11258;52.516;13.318;2023-11-19T00:27:14;4.90;99.90
22185;DHT22;11258;52.516;13.318;2023-11-19T00:29:40;5.00;99.90
22185;DHT22;11258;52.516;13.318;2023-11-19T00:32:05;5.10;99.90
22185;DHT22;11258;52.516;13.318;2023-11-19T00:34:33;5.10;99.90
22185;DHT22;11258;52.516;13.318;2023-11-19T00:36:58;5.00;99.90
22185;DHT22;11258;52.516;13.318;2023-11-19T00:39:24;5.00;99.90
22185;DHT22;11258;52.516;13.318;2023-11-19T00:41:50;5.00;99.90
22185;DHT22;11258;52.516;13.318;2023-11-19T00:44:15;5.00;99.90
22185;DHT22;11258;52.516;13.318;2023-11-19T00:46:41;5.10;99.90
22185;DHT22;11258;52.516;13.318;2023-11-19T00:49:06;5.10;99.90
22185;DHT22;11258;52.516;13.318;2023-11-19T00:51:32;5.10;99.90
22185;DHT22;11258;52.516;13.318;2023-11-19T00:53:58;5.10;99.90
22185;DHT22;11258;52.516;13.318;2023-11-19T00:56:24;5.20;99.90
22185;DHT22;11258;52.516;13.318;2023-11-19T00:58:50;5.20;99.90
22185;DHT22;11258;52.516;13.318;2023-11-19T01:01:15;5.20;99.90
22185;DHT22;11258;52.516;13.318;2023-11-19T01:03:41;5.10;99.90
22185;DHT22;11258;52.516;13.318;2023-11-19T01:06:07;5.20;99.90
22185;DHT22;11258;52.516;13.318;2023-11-19T01:08:33;5.10;99.90
22185;DHT22;11258;52.516;13.318;2023-11-19T01:11:01;5.20;99.90
22185;DHT22;11258;52.516;13.318;2023-11-19T01:13:27;5.20;99.90
22185;DHT22;11258;52.516;13.318;2023-11-19T01:15:53;5.20;99.90
22185;DHT22;11258;52.516;13.318;2023-11-19T01:18:18;5.20;99.90
22185;DHT22;11258;52.516;13.318;2023-11-19T01:20:44;5.20;99.90
22185;DHT22;11258;52.516;13.318;2023-11-19T01:23:10;5.20;99.90
22185;DHT22;11258;52.516;13.318;2023-11-19T01:25:35;5.20;99.90
22185;DHT22;11258;52.516;13.318;2023-11-19T01:28:02;5.20;99.90
22185;DHT22;11258;52.516;13.318;2023-11-19T01:30:28;5.20;99.90
22185;DHT22;11258;52.516;13.318;2023-11-19T01:32:53;5.20;99.90
22185;DHT22;11258;52.516;13.318;2023-11-19T01:35:19;5.20;99.90
22185;DHT22;11258;52.516;13.318;2023-11-19T01:37:45;5.20;99.90
22185;DHT22;11258;52.516;13.318;2023-11-19T01:40:11;5.20;99.90
22185;DHT22;11258;52.516;13.318;2023-11-19T01:42:40;5.20;99.90
22185;DHT22;11258;52.516;13.318;2023-11-19T01:45:07;5.20;99.90
22185;DHT22;11258;52.516;13.318;2023-11-19T01:47:34;5.20;99.90
22185;DHT22;11258;52.516;13.318;2023-11-19T01:50:01;5.20;99.90
22185;DHT22;11258;52.516;13.318;2023-11-19T01:52:33;5.20;99.90
22185;DHT22;11258;52.516;13.318;2023-11-19T01:55:00;5.20;99.90
22185;DHT22;11258;52.516;13.318;2023-11-19T01:57:26;5.20;99.90
22185;DHT22;11258;52.516;13.318;2023-11-19T01:59:52;5.20;99.90
22185;DHT22;11258;52.516;13.318;2023-11-19T02:02:19;5.20;99.90
22185;DHT22;11258;52.516;13.318;2023-11-19T02:04:47;5.20;99.90
22185;DHT22;11258;52.516;13.318;2023-11-19T02:07:14;5.20;99.90
22185;DHT22;11258;52.516;13.318;2023-11-19T02:09:43;5.20;99.90
22185;DHT22;11258;52.516;13.318;2023-11-19T02:12:09;5.20;99.90
22185;DHT22;11258;52.516;13.318;2023-11-19T02:14:37;5.20;99.90
22185;DHT22;11258;52.516;13.318;2023-11-19T02:17:03;5.10;99.90
22185;DHT22;11258;52.516;13.318;2023-11-19T02:19:28;5.10;99.90
22185;DHT22;11258;52.516;13.318;2023-11-19T02:21:54;5.20;99.90
22185;DHT22;11258;52.516;13.318;2023-11-19T02:24:22;5.10;99.90
22185;DHT22;11258;52.516;13.318;2023-11-19T02:27:13;5.10;99.90
22185;DHT22;11258;52.516;13.318;2023-11-19T02:29:41;5.10;99.90
22185;DHT22;11258;52.516;13.318;2023-11-19T02:32:07;5.10;99.90
22185;DHT22;11258;52.516;13.318;2023-11-19T02:34:34;5.20;99.90
22185;DHT22;11258;52.516;13.318;2023-11-19T02:37:00;5.20;99.90
22185;DHT22;11258;52.516;13.318;2023-11-19T02:39:26;5.20;99.90
22185;DHT22;11258;52.516;13.318;2023-11-19T02:41:51;5.20;99.90
22185;DHT22;11258;52.516;13.318;2023-11-19T02:44:18;5.20;99.90
22185;DHT22;11258;52.516;13.318;2023-11-19T02:46:44;5.20;99.90
22185;DHT22;11258;52.516;13.318;2023-11-19T02:49:09;5.20;99.90
22185;DHT22;11258;52.516;13.318;2023-11-19T02:51:35;5.30;99.90
22185;DHT22;11258;52.516;13.318;2023-11-19T02:54:02;5.30;99.90
22185;DHT22;11258;52.516;13.318;2023-11-19T02:56:29;5.30;99.90
22185;DHT22;11258;52.516;13.318;2023-11-19T02:59:00;5.30;99.90
22185;DHT22;11258;52.516;13.318;2023-11-19T03:01:33;5.30;99.90
22185;DHT22;11258;52.516;13.318;2023-11-19T03:04:01;5.30;99.90
22185;DHT22;11258;52.516;13.318;2023-11-19T03:06:27;5.30;99.90
22185;DHT22;11258;52.516;13.318;2023-11-19T03:08:54;5.40;99.90
22185;DHT22;11258;52.516;13.318;2023-11-19T03:11:20;5.30;99.90
22185;DHT22;11258;52.516;13.318;2023-11-19T03:13:46;5.30;99.90
22185;DHT22;11258;52.516;13.318;2023-11-19T03:16:12;5.40;99.90
22185;DHT22;11258;52.516;13.318;2023-11-19T03:18:38;5.40;99.90
22185;DHT22;11258;52.516;13.318;2023-11-19T03:21:06;5.40;99.90
22185;DHT22;11258;52.516;13.318;2023-11-19T03:23:33;5.40;99.90
22185;DHT22;11258;52.516;13.318;2023-11-19T03:25:59;5.40;99.90
22185;DHT22;11258;52.516;13.318;2023-11-19T03:28:28;5.40;99.90
22185;DHT22;11258;52.516;13.318;2023-11-19T03:30:54;5.30;99.90
22185;DHT22;11258;52.516;13.318;2023-11-19T03:33:20;5.30;99.90
22185;DHT22;11258;52.516;13.318;2023-11-19T03:35:46;5.30;99.90
22185;DHT22;11258;52.516;13.318;2023-11-19T03:38:12;5.30;99.90
22185;DHT22;11258;52.516;13.318;2023-11-19T03:40:38;5.20;99.90
22185;DHT22;11258;52.516;13.318;2023-11-19T03:43:04;5.20;99.90
22185;DHT22;11258;52.516;13.318;2023-11-19T03:45:30;5.10;99.90
22185;DHT22;11258;52.516;13.318;2023-11-19T03:47:56;5.10;99.90
22185;DHT22;11258;52.516;13.318;2023-11-19T03:50:21;5.10;99.90
22185;DHT22;11258;52.516;13.318;2023-11-19T03:52:48;5.00;99.90
22185;DHT22;11258;52.516;13.318;2023-11-19T03:55:13;5.10;99.90
22185;DHT22;11258;52.516;13.318;2023-11-19T03:57:39;5.00;99.90
22185;DHT22;11258;52.516;13.318;2023-11-19T04:00:06;5.00;99.90
22185;DHT22;11258;52.516;13.318;2023-11-19T04:02:40;5.00;99.90
22185;DHT22;11258;52.516;13.318;2023-11-19T04:05:06;4.90;99.90
22185;DHT22;11258;52.516;13.318;2023-11-19T04:07:35;4.80;99.90
22185;DHT22;11258;52.516;13.318;2023-11-19T04:10:01;4.80;99.90
22185;DHT22;11258;52.516;13.318;2023-11-19T04:12:27;4.90;99.90
22185;DHT22;11258;52.516;13.318;2023-11-19T04:14:52;4.90;99.90
22185;DHT22;11258;52.516;13.318;2023-11-19T04:17:18;4.90;99.90
22185;DHT22;11258;52.516;13.318;2023-11-19T04:19:44;5.00;99.90
22185;DHT22;11258;52.516;13.318;2023-11-19T04:22:09;4.90;99.90
22185;DHT22;11258;52.516;13.318;2023-11-19T04:24:35;4.90;99.90
22185;DHT22;11258;52.516;13.318;2023-11-19T04:27:01;4.90;99.90
22185;DHT22;11258;52.516;13.318;2023-11-19T04:29:26;5.00;99.90
22185;DHT22;11258;52.516;13.318;2023-11-19T04:31:52;5.00;99.90
22185;DHT22;11258;52.516;13.318;2023-11-19T04:34:18;5.00;99.90
22185;DHT22;11258;52.516;13.318;2023-11-19T04:36:43;5.00;99.90
22185;DHT22;11258;52.516;13.318;2023-11-19T04:39:09;5.10;99.90
22185;DHT22;11258;52.516;13.318;2023-11-19T04:41:54;5.00;99.90
22185;DHT22;11258;52.516;13.318;2023-11-19T04:44:20;5.00;99.90
22185;DHT22;11258;52.516;13.318;2023-11-19T04:46:46;5.00;99.90
22185;DHT22;11258;52.516;13.318;2023-11-19T04:49:12;4.90;99.90
22185;DHT22;11258;52.516;13.318;2023-11-19T04:51:43;4.90;99.90
22185;DHT22;11258;52.516;13.318;2023-11-19T04:54:09;5.00;99.90
22185;DHT22;11258;52.516;13.318;2023-11-19T04:56:38;5.00;99.90
22185;DHT22;11258;52.516;13.318;2023-11-19T04:59:04;5.00;99.90
22185;DHT22;11258;52.516;13.318;2023-11-19T05:01:34;4.90;99.90
22185;DHT22;11258;52.516;13.318;2023-11-19T05:04:00;4.90;99.90
22185;DHT22;11258;52.516;13.318;2023-11-19T05:06:28;4.90;99.90
22185;DHT22;11258;52.516;13.318;2023-11-19T05:08:55;5.00;99.90
22185;DHT22;11258;52.516;13.318;2023-11-19T05:11:20;4.90;99.90
22185;DHT22;11258;52.516;13.318;2023-11-19T05:13:46;5.00;99.90
22185;DHT22;11258;52.516;13.318;2023-11-19T05:16:12;4.90;99.90
22185;DHT22;11258;52.516;13.318;2023-11-19T05:18:40;4.90;99.90
22185;DHT22;11258;52.516;13.318;2023-11-19T05:21:06;4.90;99.90
22185;DHT22;11258;52.516;13.318;2023-11-19T05:23:33;5.00;99.90
22185;DHT22;11258;52.516;13.318;2023-11-19T05:26:02;5.00;99.90
22185;DHT22;11258;52.516;13.318;2023-11-19T05:28:27;4.90;99.90
22185;DHT22;11258;52.516;13.318;2023-11-19T05:30:53;5.00;99.90
22185;DHT22;11258;52.516;13.318;2023-11-19T05:33:18;5.00;99.90
22185;DHT22;11258;52.516;13.318;2023-11-19T05:35:44;5.00;99.90
22185;DHT22;11258;52.516;13.318;2023-11-19T05:38:10;5.00;99.90
22185;DHT22;11258;52.516;13.318;2023-11-19T05:40:35;5.00;99.90
22185;DHT22;11258;52.516;13.318;2023-11-19T05:43:01;5.00;99.90
22185;DHT22;11258;52.516;13.318;2023-11-19T05:45:27;5.00;99.90
22185;DHT22;11258;52.516;13.318;2023-11-19T05:47:53;5.00;99.90
22185;DHT22;11258;52.516;13.318;2023-11-19T05:50:19;5.00;99.90
22185;DHT22;11258;52.516;13.318;2023-11-19T05:52:44;5.00;99.90
22185;DHT22;11258;52.516;13.318;2023-11-19T05:55:10;5.10;99.90
22185;DHT22;11258;52.516;13.318;2023-11-19T05:57:37;5.10;99.90
22185;DHT22;11258;52.516;13.318;2023-11-19T06:00:03;5.10;99.90
22185;DHT22;11258;52.516;13.318;2023-11-19T06:02:32;5.10;99.90
22185;DHT22;11258;52.516;13.318;2023-11-19T06:04:58;5.10;99.90
22185;DHT22;11258;52.516;13.318;2023-11-19T06:07:24;5.10;99.90
22185;DHT22;11258;52.516;13.318;2023-11-19T06:09:50;5.10;99.90
22185;DHT22;11258;52.516;13.318;2023-11-19T06:12:16;5.10;99.90
22185;DHT22;11258;52.516;13.318;2023-11-19T06:14:41;5.10;99.90
22185;DHT22;11258;52.516;13.318;2023-11-19T06:17:07;5.10;99.90
22185;DHT22;11258;52.516;13.318;2023-11-19T06:19:34;5.20;99.90
22185;DHT22;11258;52.516;13.318;2023-11-19T06:21:59;5.10;99.90
22185;DHT22;11258;52.516;13.318;2023-11-19T06:24:25;5.10;99.90
22185;DHT22;11258;52.516;13.318;2023-11-19T06:26:51;5.10;99.90
22185;DHT22;11258;52.516;13.318;2023-11-19T06:29:16;5.10;99.90
22185;DHT22;11258;52.516;13.318;2023-11-19T06:31:45;5.20;99.90
22185;DHT22;11258;52.516;13.318;2023-11-19T06:34:12;5.20;99.90
22185;DHT22;11258;52.516;13.318;2023-11-19T06:36:37;5.20;99.90
22185;DHT22;11258;52.516;13.318;2023-11-19T06:39:03;5.20;99.90
22185;DHT22;11258;52.516;13.318;2023-11-19T06:41:29;5.20;99.90
22185;DHT22;11258;52.516;13.318;2023-11-19T06:43:55;5.10;99.90
22185;DHT22;11258;52.516;13.318;2023-11-19T06:46:20;5.20;99.90
22185;DHT22;11258;52.516;13.318;2023-11-19T06:48:46;5.20;99.90
22185;DHT22;11258;52.516;13.318;2023-11-19T06:51:12;5.20;99.90
22185;DHT22;11258;52.516;13.318;2023-11-19T06:53:38;5.20;99.90
22185;DHT22;11258;52.516;13.318;2023-11-19T06:56:27;5.30;99.90
22185;DHT22;11258;52.516;13.318;2023-11-19T06:58:53;5.30;99.90
22185;DHT22;11258;52.516;13.318;2023-11-19T07:01:19;5.30;99.90
22185;DHT22;11258;52.516;13.318;2023-11-19T07:03:45;5.30;99.90
22185;DHT22;11258;52.516;13.318;2023-11-19T07:06:11;5.30;99.90
22185;DHT22;11258;52.516;13.318;2023-11-19T07:08:38;5.40;99.90
22185;DHT22;11258;52.516;13.318;2023-11-19T07:11:04;5.40;99.90
22185;DHT22;11258;52.516;13.318;2023-11-19T07:13:30;5.40;99.90
22185;DHT22;11258;52.516;13.318;2023-11-19T07:15:56;5.40;99.90
22185;DHT22;11258;52.516;13.318;2023-11-19T07:18:21;5.40;99.90
22185;DHT22;11258;52.516;13.318;2023-11-19T07:20:48;5.40;99.90
22185;DHT22;11258;52.516;13.318;2023-11-19T07:23:13;5.50;99.90
22185;DHT22;11258;52.516;13.318;2023-11-19T07:25:42;5.50;99.90
22185;DHT22;11258;52.516;13.318;2023-11-19T07:28:08;5.50;99.90
22185;DHT22;11258;52.516;13.318;2023-11-19T07:30:35;5.50;99.90
22185;DHT22;11258;52.516;13.318;2023-11-19T07:33:01;5.60;99.90
22185;DHT22;11258;52.516;13.318;2023-11-19T07:35:29;5.60;99.90
22185;DHT22;11258;52.516;13.318;2023-11-19T07:37:56;5.60;99.90
22185;DHT22;11258;52.516;13.318;2023-11-19T07:40:23;5.60;99.90
22185;DHT22;11258;52.516;13.318;2023-11-19T07:42:49;5.70;99.90
22185;DHT22;11258;52.516;13.318;2023-11-19T07:45:14;5.80;99.90
22185;DHT22;11258;52.516;13.318;2023-11-19T07:47:40;5.70;99.90
22185;DHT22;11258;52.516;13.318;2023-11-19T07:50:06;5.70;99.90
22185;DHT22;11258;52.516;13.318;2023-11-19T07:52:31;5.70;99.90
22185;DHT22;11258;52.516;13.318;2023-11-19T07:54:57;5.80;99.90
22185;DHT22;11258;52.516;13.318;2023-11-19T07:57:23;5.80;99.90
22185;DHT22;11258;52.516;13.318;2023-11-19T07:59:49;5.80;99.90
22185;DHT22;11258;52.516;13.318;2023-11-19T08:02:15;5.80;99.90
22185;DHT22;11258;52.516;13.318;2023-11-19T08:04:40;5.90;99.90
22185;DHT22;11258;52.516;13.318;2023-11-19T08:07:10;5.90;99.90
22185;DHT22;11258;52.516;13.318;2023-11-19T08:09:36;5.90;99.90
22185;DHT22;11258;52.516;13.318;2023-11-19T08:12:03;6.00;99.90
22185;DHT22;11258;52.516;13.318;2023-11-19T08:14:29;6.00;99.90
22185;DHT22;11258;52.516;13.318;2023-11-19T08:16:54;6.10;99.90
22185;DHT22;11258;52.516;13.318;2023-11-19T08:19:20;6.10;99.90
22185;DHT22;11258;52.516;13.318;2023-11-19T08:21:46;6.10;99.90
22185;DHT22;11258;52.516;13.318;2023-11-19T08:24:11;6.20;99.90
22185;DHT22;11258;52.516;13.318;2023-11-19T08:26:37;6.20;99.90
22185;DHT22;11258;52.516;13.318;2023-11-19T08:29:03;6.20;99.90
22185;DHT22;11258;52.516;13.318;2023-11-19T08:31:28;6.30;99.90
22185;DHT22;11258;52.516;13.318;2023-11-19T08:33:54;6.30;99.90
22185;DHT22;11258;52.516;13.318;2023-11-19T08:36:20;6.30;99.90
22185;DHT22;11258;52.516;13.318;2023-11-19T08:38:46;6.30;99.90
22185;DHT22;11258;52.516;13.318;2023-11-19T08:41:12;6.40;99.90
22185;DHT22;11258;52.516;13.318;2023-11-19T08:43:37;6.40;99.90
22185;DHT22;11258;52.516;13.318;2023-11-19T08:46:04;6.50;99.90
22185;DHT22;11258;52.516;13.318;2023-11-19T08:48:34;6.50;99.90
22185;DHT22;11258;52.516;13.318;2023-11-19T08:50:59;6.60;99.90
22185;DHT22;11258;52.516;13.318;2023-11-19T08:53:25;6.70;99.90
22185;DHT22;11258;52.516;13.318;2023-11-19T08:55:51;6.80;99.90
22185;DHT22;11258;52.516;13.318;2023-11-19T08:58:16;6.80;99.90
22185;DHT22;11258;52.516;13.318;2023-11-19T09:00:43;6.90;99.90
22185;DHT22;11258;52.516;13.318;2023-11-19T09:03:09;6.90;99.90
22185;DHT22;11258;52.516;13.318;2023-11-19T09:05:34;7.00;99.90
22185;DHT22;11258;52.516;13.318;2023-11-19T09:08:00;7.00;99.90
22185;DHT22;11258;52.516;13.318;2023-11-19T09:10:26;7.10;99.90
22185;DHT22;11258;52.516;13.318;2023-11-19T09:12:52;7.10;99.90
22185;DHT22;11258;52.516;13.318;2023-11-19T09:15:18;7.20;99.90
22185;DHT22;11258;52.516;13.318;2023-11-19T09:17:43;7.30;99.90
22185;DHT22;11258;52.516;13.318;2023-11-19T09:20:09;7.30;99.90
22185;DHT22;11258;52.516;13.318;2023-11-19T09:22:37;7.40;99.90
22185;DHT22;11258;52.516;13.318;2023-11-19T09:25:03;7.40;99.90
22185;DHT22;11258;52.516;13.318;2023-11-19T09:27:30;7.60;99.90
22185;DHT22;11258;52.516;13.318;2023-11-19T09:29:56;7.60;99.90
22185;DHT22;11258;52.516;13.318;2023-11-19T09:32:24;7.70;99.90
22185;DHT22;11258;52.516;13.318;2023-11-19T09:34:49;7.80;99.90
22185;DHT22;11258;52.516;13.318;2023-11-19T09:37:15;7.90;99.90
22185;DHT22;11258;52.516;13.318;2023-11-19T09:39:41;7.90;99.90
22185;DHT22;11258;52.516;13.318;2023-11-19T09:42:10;7.90;99.90
22185;DHT22;11258;52.516;13.318;2023-11-19T09:44:38;8.00;99.90
22185;DHT22;11258;52.516;13.318;2023-11-19T09:47:05;8.10;99.90
22185;DHT22;11258;52.516;13.318;2023-11-19T09:49:33;8.20;99.90
22185;DHT22;11258;52.516;13.318;2023-11-19T09:52:00;8.40;99.90
22185;DHT22;11258;52.516;13.318;2023-11-19T09:54:26;8.50;99.90
22185;DHT22;11258;52.516;13.318;2023-11-19T09:56:51;8.60;99.90
22185;DHT22;11258;52.516;13.318;2023-11-19T09:59:17;8.60;99.90
22185;DHT22;11258;52.516;13.318;2023-11-19T10:01:45;8.70;99.90
22185;DHT22;11258;52.516;13.318;2023-11-19T10:04:15;8.90;99.90
22185;DHT22;11258;52.516;13.318;2023-11-19T10:06:42;8.90;99.90
22185;DHT22;11258;52.516;13.318;2023-11-19T10:09:07;8.90;99.90
22185;DHT22;11258;52.516;13.318;2023-11-19T10:11:33;8.90;99.90
22185;DHT22;11258;52.516;13.318;2023-11-19T10:13:59;8.90;99.90
22185;DHT22;11258;52.516;13.318;2023-11-19T10:16:29;9.00;99.90
22185;DHT22;11258;52.516;13.318;2023-11-19T10:18:55;9.00;99.90
22185;DHT22;11258;52.516;13.318;2023-11-19T10:21:21;9.10;99.90
22185;DHT22;11258;52.516;13.318;2023-11-19T10:23:57;9.10;99.90
22185;DHT22;11258;52.516;13.318;2023-11-19T10:26:25;9.20;99.90
22185;DHT22;11258;52.516;13.318;2023-11-19T10:28:52;9.30;99.90
22185;DHT22;11258;52.516;13.318;2023-11-19T10:31:19;9.30;99.90
22185;DHT22;11258;52.516;13.318;2023-11-19T10:33:46;9.50;99.90
22185;DHT22;11258;52.516;13.318;2023-11-19T10:36:12;9.60;99.90
22185;DHT22;11258;52.516;13.318;2023-11-19T10:38:38;9.70;99.90
22185;DHT22;11258;52.516;13.318;2023-11-19T10:41:04;10.00;99.90
22185;DHT22;11258;52.516;13.318;2023-11-19T10:43:31;10.10;99.90
22185;DHT22;11258;52.516;13.318;2023-11-19T10:46:13;10.30;99.90
22185;DHT22;11258;52.516;13.318;2023-11-19T10:48:39;10.50;99.90
22185;DHT22;11258;52.516;13.318;2023-11-19T10:51:07;10.70;99.90
22185;DHT22;11258;52.516;13.318;2023-11-19T10:53:37;10.80;99.90
22185;DHT22;11258;52.516;13.318;2023-11-19T10:56:10;10.90;99.90
22185;DHT22;11258;52.516;13.318;2023-11-19T10:58:37;10.90;99.90
22185;DHT22;11258;52.516;13.318;2023-11-19T11:01:11;10.80;99.90
22185;DHT22;11258;52.516;13.318;2023-11-19T11:03:42;10.70;99.90
22185;DHT22;11258;52.516;13.318;2023-11-19T11:06:11;10.70;99.90
22185;DHT22;11258;52.516;13.318;2023-11-19T11:08:39;10.70;99.90
22185;DHT22;11258;52.516;13.318;2023-11-19T11:11:05;10.70;99.90
22185;DHT22;11258;52.516;13.318;2023-11-19T11:13:32;10.60;99.90
22185;DHT22;11258;52.516;13.318;2023-11-19T11:15:59;10.60;99.90
22185;DHT22;11258;52.516;13.318;2023-11-19T11:18:25;10.60;99.90
22185;DHT22;11258;52.516;13.318;2023-11-19T11:20:59;10.70;99.90
22185;DHT22;11258;52.516;13.318;2023-11-19T11:23:37;10.70;99.90
22185;DHT22;11258;52.516;13.318;2023-11-19T11:37:39;11.00;99.90
22185;DHT22;11258;52.516;13.318;2023-11-19T11:40:14;11.10;99.90
22185;DHT22;11258;52.516;13.318;2023-11-19T11:42:41;11.20;99.90
22185;DHT22;11258;52.516;13.318;2023-11-19T11:45:09;11.30;99.90
22185;DHT22;11258;52.516;13.318;2023-11-19T11:50:11;11.50;99.90
22185;DHT22;11258;52.516;13.318;2023-11-19T11:55:36;11.70;99.90
22185;DHT22;11258;52.516;13.318;2023-11-19T11:58:06;11.70;99.90
22185;DHT22;11258;52.516;13.318;2023-11-19T12:02:59;11.70;99.90
22185;DHT22;11258;52.516;13.318;2023-11-19T12:05:25;11.70;99.90
22185;DHT22;11258;52.516;13.318;2023-11-19T12:07:55;11.60;99.90
22185;DHT22;11258;52.516;13.318;2023-11-19T12:10:24;11.60;99.90
22185;DHT22;11258;52.516;13.318;2023-11-19T12:12:53;11.60;99.90
22185;DHT22;11258;52.516;13.318;2023-11-19T12:15:18;11.50;99.90
22185;DHT22;11258;52.516;13.318;2023-11-19T12:17:51;11.60;99.90
22185;DHT22;11258;52.516;13.318;2023-11-19T12:20:24;11.60;99.90
22185;DHT22;11258;52.516;13.318;2023-11-19T12:22:50;11.60;99.90
22185;DHT22;11258;52.516;13.318;2023-11-19T12:25:17;11.60;99.90
22185;DHT22;11258;52.516;13.318;2023-11-19T12:27:43;11.60;99.90
22185;DHT22;11258;52.516;13.318;2023-11-19T12:30:10;11.50;99.90
22185;DHT22;11258;52.516;13.318;2023-11-19T12:32:42;11.50;99.90
22185;DHT22;11258;52.516;13.318;2023-11-19T12:35:09;11.40;99.90
22185;DHT22;11258;52.516;13.318;2023-11-19T12:37:45;11.30;99.90
22185;DHT22;11258;52.516;13.318;2023-11-19T12:40:21;11.30;99.90
22185;DHT22;11258;52.516;13.318;2023-11-19T12:42:52;11.20;99.90
22185;DHT22;11258;52.516;13.318;2023-11-19T12:45:19;11.20;99.90
22185;DHT22;11258;52.516;13.318;2023-11-19T12:47:45;11.20;99.90
22185;DHT22;11258;52.516;13.318;2023-11-19T12:50:16;11.20;99.90
22185;DHT22;11258;52.516;13.318;2023-11-19T12:52:57;11.30;99.90
22185;DHT22;11258;52.516;13.318;2023-11-19T12:55:29;11.30;99.90
22185;DHT22;11258;52.516;13.318;2023-11-19T12:57:55;11.30;99.90
22185;DHT22;11258;52.516;13.318;2023-11-19T13:00:22;11.40;99.90
22185;DHT22;11258;52.516;13.318;2023-11-19T13:02:50;11.40;99.90
22185;DHT22;11258;52.516;13.318;2023-11-19T13:08:05;11.30;99.90
22185;DHT22;11258;52.516;13.318;2023-11-19T13:13:19;11.30;99.90
22185;DHT22;11258;52.516;13.318;2023-11-19T13:15:45;11.30;99.90
22185;DHT22;11258;52.516;13.318;2023-11-19T13:18:11;11.30;99.90
22185;DHT22;11258;52.516;13.318;2023-11-19T13:20:37;11.30;99.90
22185;DHT22;11258;52.516;13.318;2023-11-19T13:23:04;11.30;99.90
22185;DHT22;11258;52.516;13.318;2023-11-19T13:25:30;11.20;99.90
22185;DHT22;11258;52.516;13.318;2023-11-19T13:27:56;11.20;99.90
22185;DHT22;11258;52.516;13.318;2023-11-19T13:30:23;11.20;99.90
22185;DHT22;11258;52.516;13.318;2023-11-19T13:32:50;11.20;99.90
22185;DHT22;11258;52.516;13.318;2023-11-19T13:35:16;11.20;99.90
22185;DHT22;11258;52.516;13.318;2023-11-19T13:37:43;11.20;99.90
22185;DHT22;11258;52.516;13.318;2023-11-19T13:40:09;11.20;99.90
22185;DHT22;11258;52.516;13.318;2023-11-19T13:42:38;11.30;99.90
22185;DHT22;11258;52.516;13.318;2023-11-19T13:45:11;11.30;99.90
22185;DHT22;11258;52.516;13.318;2023-11-19T13:47:45;11.30;99.90
22185;DHT22;11258;52.516;13.318;2023-11-19T13:50:15;11.30;99.90
22185;DHT22;11258;52.516;13.318;2023-11-19T13:52:43;11.30;99.90
22185;DHT22;11258;52.516;13.318;2023-11-19T13:55:10;11.30;99.90
22185;DHT22;11258;52.516;13.318;2023-11-19T13:57:40;11.30;99.90
22185;DHT22;11258;52.516;13.318;2023-11-19T14:00:08;11.30;99.90
22185;DHT22;11258;52.516;13.318;2023-11-19T14:02:42;11.30;99.90
22185;DHT22;11258;52.516;13.318;2023-11-19T14:05:08;11.20;99.90
22185;DHT22;11258;52.516;13.318;2023-11-19T14:07:34;11.30;99.90
22185;DHT22;11258;52.516;13.318;2023-11-19T14:10:00;11.30;99.90
22185;DHT22;11258;52.516;13.318;2023-11-19T14:12:26;11.30;99.90
22185;DHT22;11258;52.516;13.318;2023-11-19T14:14:52;11.30;99.90
22185;DHT22;11258;52.516;13.318;2023-11-19T14:17:17;11.30;99.90
22185;DHT22;11258;52.516;13.318;2023-11-19T14:19:44;11.30;99.90
22185;DHT22;11258;52.516;13.318;2023-11-19T14:22:10;11.30;99.90
22185;DHT22;11258;52.516;13.318;2023-11-19T14:24:35;11.30;99.90
22185;DHT22;11258;52.516;13.318;2023-11-19T14:27:01;11.30;99.90
22185;DHT22;11258;52.516;13.318;2023-11-19T14:29:27;11.30;99.90
22185;DHT22;11258;52.516;13.318;2023-11-19T14:31:57;11.20;99.90
22185;DHT22;11258;52.516;13.318;2023-11-19T14:34:24;11.30;99.90
22185;DHT22;11258;52.516;13.318;2023-11-19T14:36:51;11.30;99.90
22185;DHT22;11258;52.516;13.318;2023-11-19T14:39:17;11.30;99.90
22185;DHT22;11258;52.516;13.318;2023-11-19T14:41:43;11.30;99.90
22185;DHT22;11258;52.516;13.318;2023-11-19T14:44:11;11.30;99.90
22185;DHT22;11258;52.516;13.318;2023-11-19T14:46:38;11.30;99.90
22185;DHT22;11258;52.516;13.318;2023-11-19T14:49:03;11.20;99.90
22185;DHT22;11258;52.516;13.318;2023-11-19T14:51:30;11.20;99.90
22185;DHT22;11258;52.516;13.318;2023-11-19T14:53:55;11.20;99.90
22185;DHT22;11258;52.516;13.318;2023-11-19T14:56:21;11.20;99.90
22185;DHT22;11258;52.516;13.318;2023-11-19T14:58:47;11.20;99.90
22185;DHT22;11258;52.516;13.318;2023-11-19T15:01:13;11.30;99.90
22185;DHT22;11258;52.516;13.318;2023-11-19T15:03:39;11.30;99.90
22185;DHT22;11258;52.516;13.318;2023-11-19T15:06:05;11.30;99.90
22185;DHT22;11258;52.516;13.318;2023-11-19T15:08:32;11.30;99.90
22185;DHT22;11258;52.516;13.318;2023-11-19T15:10:58;11.20;99.90
22185;DHT22;11258;52.516;13.318;2023-11-19T15:13:24;11.20;99.90
22185;DHT22;11258;52.516;13.318;2023-11-19T15:15:49;11.20;99.90
22185;DHT22;11258;52.516;13.318;2023-11-19T15:18:15;11.30;99.90
22185;DHT22;11258;52.516;13.318;2023-11-19T15:20:43;11.20;99.90
22185;DHT22;11258;52.516;13.318;2023-11-19T15:23:15;11.20;99.90
22185;DHT22;11258;52.516;13.318;2023-11-19T15:25:42;11.20;99.90
22185;DHT22;11258;52.516;13.318;2023-11-19T15:28:08;11.20;99.90
22185;DHT22;11258;52.516;13.318;2023-11-19T15:30:33;11.20;99.90
22185;DHT22;11258;52.516;13.318;2023-11-19T15:32:59;11.10;99.90
22185;DHT22;11258;52.516;13.318;2023-11-19T15:35:24;11.10;99.90
22185;DHT22;11258;52.516;13.318;2023-11-19T15:37:51;11.10;99.90
22185;DHT22;11258;52.516;13.318;2023-11-19T15:40:16;11.10;99.90
22185;DHT22;11258;52.516;13.318;2023-11-19T15:42:43;11.00;99.90
22185;DHT22;11258;52.516;13.318;2023-11-19T15:45:10;11.00;99.90
22185;DHT22;11258;52.516;13.318;2023-11-19T15:47:37;11.10;99.90
22185;DHT22;11258;52.516;13.318;2023-11-19T15:50:03;11.00;99.90